Time;durP1;ratioP1;P1;durP2;ratioP2;P2;SDS_P1;SDS_P2;PMS_P1;PMS_P2;Temp;Humidity;BMP_temperature;BMP_pressure;BME280_temperature;BME280_humidity;BME280_pressure;Samples;Min_cycle;Max_cycle;Signal;HPM_P1;HPM_P2
2023/06/25 00:02:13;;;;;;;11.90;9.23;;;18.60;99.90;;;;;;5085462;28;20169;-69
2023/06/25 00:04:39;;;;;;;12.57;10.13;;;18.60;99.90;;;;;;5087687;28;20173;-69
2023/06/25 00:07:05;;;;;;;11.53;9.50;;;18.60;99.90;;;;;;5085044;28;20187;-68
2023/06/25 00:09:30;;;;;;;9.47;8.47;;;18.60;99.90;;;;;;5084465;28;20198;-68
2023/06/25 00:11:56;;;;;;;10.40;9.30;;;18.60;99.90;;;;;;5088155;28;20441;-67
2023/06/25 00:14:22;;;;;;;8.67;7.60;;;18.60;99.90;;;;;;5091079;28;20185;-69
2023/06/25 00:16:47;;;;;;;10.07;9.07;;;18.70;99.90;;;;;;5087503;28;20203;-69
2023/06/25 00:19:17;;;;;;;10.77;9.33;;;18.70;99.90;;;;;;5084931;28;20284;-68
2023/06/25 00:21:42;;;;;;;10.50;9.20;;;18.70;99.90;;;;;;5084627;28;20204;-68
2023/06/25 00:24:08;;;;;;;9.40;8.37;;;18.80;99.90;;;;;;5084694;28;20440;-69
2023/06/25 00:26:34;;;;;;;9.47;7.70;;;18.80;99.90;;;;;;5084664;28;20198;-69
2023/06/25 00:28:59;;;;;;;8.50;7.03;;;18.90;99.90;;;;;;5081352;28;20169;-68
2023/06/25 00:31:25;;;;;;;8.97;7.57;;;18.90;99.90;;;;;;5090819;28;20563;-67
2023/06/25 00:33:51;;;;;;;8.10;7.27;;;19.00;99.90;;;;;;5087289;28;20514;-68
2023/06/25 00:36:16;;;;;;;9.03;7.93;;;19.00;99.90;;;;;;5089529;28;20173;-69
2023/06/25 00:38:42;;;;;;;7.63;6.83;;;19.00;99.90;;;;;;5090195;28;20172;-70
2023/06/25 00:41:09;;;;;;;8.70;7.43;;;19.10;99.90;;;;;;5084423;28;20229;-68
2023/06/25 00:43:40;;;;;;;8.50;7.17;;;19.10;99.90;;;;;;5089998;28;20412;-69
2023/06/25 00:46:12;;;;;;;13.80;8.87;;;19.20;99.90;;;;;;5087605;28;20400;-69
2023/06/25 00:48:45;;;;;;;7.73;6.93;;;19.20;99.90;;;;;;5090060;28;20465;-69
2023/06/25 00:51:14;;;;;;;9.03;7.20;;;19.20;99.90;;;;;;5084608;28;20416;-68
2023/06/25 00:53:40;;;;;;;10.67;8.60;;;19.30;99.90;;;;;;5083412;28;20411;-68
2023/06/25 00:56:06;;;;;;;8.73;7.63;;;19.30;99.90;;;;;;5083344;28;20810;-68
2023/06/25 00:58:37;;;;;;;8.47;7.47;;;19.30;99.90;;;;;;5088334;28;20180;-68
2023/06/25 01:01:20;;;;;;;8.70;7.77;;;19.30;99.90;;;;;;5090030;28;20546;-69
2023/06/25 01:03:54;;;;;;;9.07;7.60;;;19.30;99.90;;;;;;5086064;28;20809;-69
2023/06/25 01:06:30;;;;;;;12.63;8.00;;;19.30;99.90;;;;;;5078743;28;20874;-69
2023/06/25 01:08:59;;;;;;;8.50;7.57;;;19.40;99.90;;;;;;5090049;28;20404;-69
2023/06/25 01:11:24;;;;;;;9.80;8.30;;;19.40;99.90;;;;;;5084428;28;20424;-69
2023/06/25 01:13:50;;;;;;;11.80;8.87;;;19.40;99.90;;;;;;5088485;28;20417;-69
2023/06/25 01:16:16;;;;;;;10.10;8.30;;;19.40;99.90;;;;;;5086315;28;20172;-68
2023/06/25 01:18:41;;;;;;;10.73;9.23;;;19.50;99.90;;;;;;5083782;28;20256;-68
2023/06/25 01:21:09;;;;;;;9.70;8.53;;;19.50;99.90;;;;;;5091484;28;20192;-68
2023/06/25 01:23:35;;;;;;;9.87;8.97;;;19.50;99.90;;;;;;5087940;28;20172;-69
2023/06/25 01:26:01;;;;;;;11.87;9.10;;;19.60;99.90;;;;;;5090317;28;20403;-69
2023/06/25 01:28:27;;;;;;;8.40;7.63;;;19.60;99.90;;;;;;5082668;28;20916;-68
2023/06/25 01:30:53;;;;;;;8.17;7.23;;;19.60;99.90;;;;;;5084357;28;20572;-68
2023/06/25 01:33:20;;;;;;;12.47;8.30;;;19.60;99.90;;;;;;5074948;28;20195;-68
2023/06/25 01:35:46;;;;;;;8.70;7.80;;;19.60;99.90;;;;;;5086506;28;20175;-68
2023/06/25 01:38:12;;;;;;;8.40;7.60;;;19.60;99.90;;;;;;5074919;28;20934;-68
2023/06/25 01:40:38;;;;;;;9.13;7.90;;;19.60;99.90;;;;;;5080988;28;20196;-68
2023/06/25 01:43:03;;;;;;;8.07;6.90;;;19.70;99.90;;;;;;5083622;28;20178;-69
2023/06/25 01:45:29;;;;;;;7.47;6.50;;;19.70;99.90;;;;;;5082417;28;20411;-69
2023/06/25 01:47:55;;;;;;;10.10;7.00;;;19.70;99.90;;;;;;5082889;28;20199;-68
2023/06/25 01:50:20;;;;;;;10.60;7.73;;;19.70;99.90;;;;;;5077527;28;20171;-68
2023/06/25 01:52:46;;;;;;;8.93;7.97;;;19.70;99.90;;;;;;5082498;28;20179;-68
2023/06/25 01:55:12;;;;;;;9.10;6.77;;;19.70;99.90;;;;;;5064659;28;20173;-69
2023/06/25 01:57:37;;;;;;;7.50;6.50;;;19.80;99.90;;;;;;5071325;28;20629;-68
2023/06/25 02:00:06;;;;;;;6.77;6.07;;;19.80;99.90;;;;;;5083837;28;20209;-68
2023/06/25 02:02:32;;;;;;;6.87;6.10;;;19.80;99.90;;;;;;5082477;28;20305;-69
2023/06/25 02:04:57;;;;;;;7.47;6.63;;;19.80;99.90;;;;;;5083182;28;20502;-69
2023/06/25 02:07:23;;;;;;;8.77;6.93;;;19.80;99.90;;;;;;5083218;28;20225;-70
2023/06/25 02:09:49;;;;;;;10.43;7.77;;;19.80;99.90;;;;;;5081783;28;20174;-68
2023/06/25 02:12:14;;;;;;;7.60;6.03;;;19.90;99.90;;;;;;5085296;28;20229;-69
2023/06/25 02:14:40;;;;;;;7.63;6.80;;;19.90;99.90;;;;;;5081986;28;20261;-68
2023/06/25 02:17:05;;;;;;;8.07;7.27;;;19.90;99.90;;;;;;5081590;28;20692;-68
2023/06/25 02:19:31;;;;;;;8.10;7.37;;;19.90;99.90;;;;;;5084845;28;20212;-68
2023/06/25 02:21:57;;;;;;;9.20;7.60;;;19.90;99.90;;;;;;5084747;28;20174;-68
2023/06/25 02:24:23;;;;;;;9.50;7.60;;;19.90;99.90;;;;;;5084564;28;20554;-68
2023/06/25 02:26:48;;;;;;;14.13;8.00;;;19.90;99.90;;;;;;5080196;28;20204;-70
2023/06/25 02:29:14;;;;;;;13.00;7.37;;;19.90;99.90;;;;;;5083088;28;20416;-69
2023/06/25 02:31:40;;;;;;;9.07;6.87;;;19.90;99.90;;;;;;5079968;28;20169;-69
2023/06/25 02:34:05;;;;;;;7.37;6.00;;;19.90;99.90;;;;;;5078972;28;20175;-69
2023/06/25 02:36:31;;;;;;;8.67;7.63;;;19.90;99.90;;;;;;5082679;28;20189;-68
2023/06/25 02:38:56;;;;;;;7.63;6.30;;;20.00;99.90;;;;;;5078279;28;20659;-69
2023/06/25 02:41:22;;;;;;;7.40;6.70;;;20.00;99.90;;;;;;5078145;28;20246;-68
2023/06/25 02:43:48;;;;;;;11.90;7.33;;;20.00;99.90;;;;;;5074488;28;20177;-69
2023/06/25 02:46:13;;;;;;;7.63;6.43;;;20.00;99.90;;;;;;5082575;28;20717;-69
2023/06/25 02:48:42;;;;;;;8.13;7.13;;;20.00;99.90;;;;;;5075471;28;20248;-69
2023/06/25 02:51:09;;;;;;;12.47;7.03;;;20.00;99.90;;;;;;5080831;28;20178;-68
2023/06/25 02:53:34;;;;;;;10.50;7.70;;;20.00;99.90;;;;;;5082792;28;20510;-69
2023/06/25 02:56:00;;;;;;;9.97;7.90;;;20.00;99.90;;;;;;5078006;28;20952;-68
2023/06/25 02:58:25;;;;;;;7.20;6.60;;;20.00;99.90;;;;;;5082178;28;20218;-68
2023/06/25 03:00:51;;;;;;;9.10;7.10;;;20.00;99.90;;;;;;5080110;28;20289;-69
2023/06/25 03:03:16;;;;;;;9.23;7.57;;;20.00;99.90;;;;;;5082404;28;20652;-68
2023/06/25 03:05:42;;;;;;;9.47;7.60;;;20.00;99.90;;;;;;5059763;28;20191;-68
2023/06/25 03:08:08;;;;;;;8.33;6.73;;;20.00;99.90;;;;;;5083454;28;20193;-69
2023/06/25 03:10:37;;;;;;;8.30;6.90;;;20.00;99.90;;;;;;5086842;28;20727;-70
2023/06/25 03:13:04;;;;;;;7.00;6.30;;;20.00;99.90;;;;;;5073901;28;20205;-68
2023/06/25 03:15:29;;;;;;;9.50;7.37;;;20.00;99.90;;;;;;5089678;28;20441;-68
2023/06/25 03:17:55;;;;;;;8.90;7.73;;;20.00;99.90;;;;;;5087564;28;20485;-69
2023/06/25 03:20:20;;;;;;;8.83;7.97;;;20.00;99.90;;;;;;5086710;28;20191;-68
2023/06/25 03:22:46;;;;;;;8.83;7.87;;;20.00;99.90;;;;;;5092652;28;20166;-68
2023/06/25 03:25:12;;;;;;;9.37;7.27;;;20.10;99.90;;;;;;5085358;28;20175;-68
2023/06/25 03:27:38;;;;;;;9.00;6.90;;;20.10;99.90;;;;;;5082765;28;20186;-69
2023/06/25 03:30:04;;;;;;;10.80;7.90;;;20.10;99.90;;;;;;5090595;28;20267;-68
2023/06/25 03:32:30;;;;;;;8.40;6.83;;;20.10;99.90;;;;;;5086415;28;20884;-68
2023/06/25 03:34:55;;;;;;;9.30;7.80;;;20.10;99.90;;;;;;5089007;28;20437;-68
2023/06/25 03:37:22;;;;;;;8.57;7.30;;;20.10;99.90;;;;;;5085920;28;20531;-69
2023/06/25 03:39:48;;;;;;;8.90;7.37;;;20.10;99.90;;;;;;5086798;28;20482;-69
2023/06/25 03:42:13;;;;;;;9.20;7.97;;;20.20;99.90;;;;;;5082035;28;20418;-68
2023/06/25 03:44:46;;;;;;;9.70;7.80;;;20.20;99.90;;;;;;5088344;28;20652;-68
2023/06/25 03:47:12;;;;;;;10.23;8.50;;;20.20;99.90;;;;;;5078781;28;20197;-69
2023/06/25 03:49:37;;;;;;;9.23;8.33;;;20.20;99.90;;;;;;5086928;28;20764;-70
2023/06/25 03:52:03;;;;;;;10.40;7.87;;;20.20;99.90;;;;;;5078347;28;20183;-69
2023/06/25 03:54:29;;;;;;;10.03;7.93;;;20.20;99.90;;;;;;5070620;28;20168;-69
2023/06/25 03:56:54;;;;;;;8.00;7.20;;;20.30;99.90;;;;;;5087341;28;20341;-69
2023/06/25 03:59:20;;;;;;;10.77;7.47;;;20.30;99.90;;;;;;5072514;28;20180;-69
2023/06/25 04:01:45;;;;;;;8.13;7.33;;;20.30;99.90;;;;;;5087386;28;20663;-70
2023/06/25 04:04:11;;;;;;;10.17;8.90;;;20.30;99.90;;;;;;5081530;28;20231;-69
2023/06/25 04:06:37;;;;;;;7.33;6.60;;;20.40;99.90;;;;;;5090207;28;20187;-69
2023/06/25 04:09:03;;;;;;;7.90;6.67;;;20.40;99.90;;;;;;5082315;28;20171;-69
2023/06/25 04:11:29;;;;;;;9.40;7.10;;;20.40;99.90;;;;;;5081666;28;20176;-69
2023/06/25 04:13:54;;;;;;;7.40;6.57;;;20.40;99.90;;;;;;5086475;28;20500;-70
2023/06/25 04:16:20;;;;;;;8.47;6.40;;;20.30;99.90;;;;;;5081420;28;20184;-69
2023/06/25 04:18:46;;;;;;;8.53;7.73;;;20.40;99.90;;;;;;5087649;28;20637;-69
2023/06/25 04:21:11;;;;;;;9.93;7.43;;;20.40;99.90;;;;;;5081477;28;20239;-69
2023/06/25 04:23:37;;;;;;;9.37;6.57;;;20.30;99.90;;;;;;5089720;28;20180;-69
2023/06/25 04:26:03;;;;;;;8.10;7.30;;;20.30;99.90;;;;;;5080470;28;20173;-69
2023/06/25 04:28:29;;;;;;;8.80;6.77;;;20.40;99.90;;;;;;5077802;28;20179;-69
2023/06/25 04:30:54;;;;;;;8.77;7.37;;;20.40;99.90;;;;;;5087556;28;20912;-69
2023/06/25 04:33:20;;;;;;;6.50;5.53;;;20.40;99.90;;;;;;5081054;28;20314;-69
2023/06/25 04:35:46;;;;;;;6.07;5.47;;;20.40;99.90;;;;;;5087821;28;20180;-69
2023/06/25 04:38:12;;;;;;;7.03;6.33;;;20.50;99.90;;;;;;5074821;28;20201;-69
2023/06/25 04:40:38;;;;;;;11.20;7.27;;;20.50;99.90;;;;;;5082212;28;20550;-69
2023/06/25 04:43:03;;;;;;;7.40;6.43;;;20.50;99.90;;;;;;5084515;28;20169;-70
2023/06/25 04:45:29;;;;;;;7.63;6.50;;;20.50;99.90;;;;;;5083858;28;20165;-69
2023/06/25 04:47:54;;;;;;;6.23;5.40;;;20.50;99.90;;;;;;5083259;28;20225;-68
2023/06/25 04:50:21;;;;;;;7.57;6.03;;;20.50;99.90;;;;;;5085230;28;20176;-69
2023/06/25 04:52:46;;;;;;;8.07;7.27;;;20.60;99.90;;;;;;5080679;28;20622;-68
2023/06/25 04:55:12;;;;;;;8.97;6.67;;;20.50;99.90;;;;;;5076415;28;20491;-69
2023/06/25 04:57:38;;;;;;;8.13;6.37;;;20.60;99.90;;;;;;5081777;28;20669;-69
2023/06/25 05:00:05;;;;;;;9.10;6.70;;;20.60;99.90;;;;;;5114966;22;20317;-71
2023/06/25 05:02:31;;;;;;;7.03;6.43;;;20.70;99.90;;;;;;5095766;28;20438;-69
2023/06/25 05:04:57;;;;;;;7.33;6.37;;;20.70;99.90;;;;;;5089824;28;20506;-70
2023/06/25 05:07:22;;;;;;;7.50;6.80;;;20.80;99.90;;;;;;5102872;28;20504;-70
2023/06/25 05:09:48;;;;;;;6.30;5.70;;;20.80;99.90;;;;;;5086892;28;20192;-70
2023/06/25 05:12:13;;;;;;;7.63;6.30;;;20.80;99.90;;;;;;5094861;28;20183;-70
2023/06/25 05:14:39;;;;;;;9.03;6.37;;;20.90;99.90;;;;;;5091140;28;20185;-69
2023/06/25 05:17:05;;;;;;;10.83;6.40;;;20.90;99.90;;;;;;5088171;28;20172;-70
2023/06/25 05:19:30;;;;;;;6.90;6.20;;;20.90;99.90;;;;;;5091073;28;20192;-70
2023/06/25 05:21:56;;;;;;;10.13;6.40;;;21.10;99.90;;;;;;5091145;28;20367;-71
2023/06/25 05:24:22;;;;;;;7.10;6.40;;;21.20;99.90;;;;;;5095667;28;20615;-70
2023/06/25 05:26:47;;;;;;;8.13;7.37;;;21.30;99.90;;;;;;5086151;28;20248;-71
2023/06/25 05:29:13;;;;;;;9.10;7.50;;;21.40;99.90;;;;;;5088209;28;20183;-69
2023/06/25 05:31:38;;;;;;;7.07;6.37;;;21.40;99.90;;;;;;5090602;28;20583;-70
2023/06/25 05:34:04;;;;;;;7.63;6.83;;;21.60;99.90;;;;;;5088064;28;20190;-69
2023/06/25 05:36:30;;;;;;;6.97;6.27;;;21.60;99.90;;;;;;5095887;28;20228;-70
2023/06/25 05:38:55;;;;;;;6.40;5.80;;;21.60;99.90;;;;;;5086270;28;20232;-70
2023/06/25 05:41:21;;;;;;;7.33;6.63;;;21.60;99.90;;;;;;5087777;28;20287;-69
2023/06/25 05:43:47;;;;;;;6.43;5.73;;;21.60;99.90;;;;;;5098729;28;20166;-69
2023/06/25 05:46:13;;;;;;;7.43;6.63;;;21.50;99.90;;;;;;5087189;28;20173;-69
2023/06/25 05:48:39;;;;;;;7.23;6.50;;;21.70;99.90;;;;;;5097270;28;20167;-69
2023/06/25 05:51:05;;;;;;;6.60;5.90;;;21.60;99.90;;;;;;5090608;28;20438;-69
2023/06/25 05:53:41;;;;;;;6.60;6.00;;;21.60;99.90;;;;;;5088937;28;20901;-69
2023/06/25 05:56:07;;;;;;;6.13;5.53;;;21.60;99.90;;;;;;5086681;28;20170;-70
2023/06/25 05:58:36;;;;;;;6.33;5.83;;;21.60;99.90;;;;;;5093781;28;20417;-70
2023/06/25 06:01:05;;;;;;;9.10;7.23;;;21.70;99.90;;;;;;5084604;28;20492;-70
2023/06/25 06:03:32;;;;;;;6.27;5.67;;;21.90;99.90;;;;;;5086935;28;21005;-69
2023/06/25 06:05:58;;;;;;;8.27;6.83;;;21.90;99.90;;;;;;5097880;28;20510;-69
2023/06/25 06:08:24;;;;;;;6.90;5.90;;;22.10;99.90;;;;;;5088527;28;20169;-69
2023/06/25 06:10:50;;;;;;;5.90;5.40;;;22.20;99.90;;;;;;5093968;28;20460;-70
2023/06/25 06:13:16;;;;;;;6.40;5.80;;;22.70;99.90;;;;;;5096221;28;20172;-69
2023/06/25 06:15:42;;;;;;;6.17;5.57;;;23.00;99.90;;;;;;5066993;28;20189;-69
2023/06/25 06:18:08;;;;;;;5.60;4.90;;;23.10;99.90;;;;;;5096968;28;20480;-67
2023/06/25 06:20:33;;;;;;;5.93;5.33;;;23.30;99.90;;;;;;5089417;28;20462;-69
2023/06/25 06:23:01;;;;;;;6.50;5.90;;;23.40;99.90;;;;;;5094855;28;20836;-70
2023/06/25 06:25:27;;;;;;;7.63;5.07;;;23.00;99.90;;;;;;5088093;28;20170;-69
2023/06/25 06:27:54;;;;;;;7.13;5.83;;;23.10;99.90;;;;;;5088549;28;20834;-70
2023/06/25 06:30:23;;;;;;;6.33;5.73;;;23.50;99.90;;;;;;5077487;28;20315;-69
2023/06/25 06:32:48;;;;;;;6.80;6.20;;;23.60;99.90;;;;;;5089128;28;20410;-69
2023/06/25 06:35:14;;;;;;;7.27;5.63;;;23.90;99.90;;;;;;5089890;28;20492;-69
2023/06/25 06:37:40;;;;;;;7.27;6.67;;;24.00;99.90;;;;;;5088565;28;20195;-70
2023/06/25 06:40:06;;;;;;;5.90;5.40;;;23.90;99.90;;;;;;5095089;28;20193;-69
2023/06/25 06:42:34;;;;;;;8.00;7.20;;;23.90;99.90;;;;;;5086631;28;20170;-70
2023/06/25 06:45:00;;;;;;;8.83;7.10;;;24.10;99.90;;;;;;5089497;28;20445;-70
2023/06/25 06:47:25;;;;;;;6.93;6.27;;;24.10;99.90;;;;;;5097712;28;20440;-71
2023/06/25 06:49:51;;;;;;;6.83;5.87;;;24.10;99.90;;;;;;5099758;28;20205;-70
2023/06/25 06:52:16;;;;;;;6.60;6.00;;;23.80;99.90;;;;;;5091294;28;20326;-70
2023/06/25 06:54:42;;;;;;;6.50;5.83;;;24.30;99.90;;;;;;5091662;28;20183;-69
2023/06/25 06:57:07;;;;;;;6.50;5.90;;;24.30;99.90;;;;;;5099069;28;20558;-70
2023/06/25 06:59:33;;;;;;;7.53;6.83;;;24.90;99.90;;;;;;5090809;28;20216;-70
2023/06/25 07:01:58;;;;;;;19.33;6.40;;;25.30;99.90;;;;;;5090173;28;20177;-70
2023/06/25 07:04:24;;;;;;;7.83;6.30;;;25.80;99.90;;;;;;5095658;28;20172;-70
2023/06/25 07:06:50;;;;;;;7.37;6.67;;;25.30;99.90;;;;;;5093353;28;20324;-71
2023/06/25 07:09:22;;;;;;;7.27;6.47;;;26.00;99.90;;;;;;5099282;28;20245;-70
2023/06/25 07:11:48;;;;;;;7.43;6.50;;;26.20;99.90;;;;;;5094715;28;20298;-71
2023/06/25 07:14:13;;;;;;;7.37;6.60;;;25.20;99.90;;;;;;5093307;28;20711;-70
2023/06/25 07:16:41;;;;;;;6.40;5.80;;;25.50;99.90;;;;;;5095202;28;20573;-70
2023/06/25 07:19:07;;;;;;;6.97;6.27;;;26.00;99.90;;;;;;5088683;28;20223;-70
2023/06/25 07:21:33;;;;;;;6.50;5.90;;;26.30;99.90;;;;;;5093449;28;20450;-70
2023/06/25 07:23:58;;;;;;;7.07;6.37;;;26.80;99.90;;;;;;5090353;28;20235;-69
2023/06/25 07:26:25;;;;;;;7.03;6.33;;;26.50;99.90;;;;;;5092122;28;20634;-70
2023/06/25 07:28:51;;;;;;;8.00;6.63;;;26.60;99.90;;;;;;5093837;28;20247;-70
2023/06/25 07:31:16;;;;;;;5.23;4.80;;;27.10;99.90;;;;;;5093440;28;20408;-71
2023/06/25 07:33:42;;;;;;;6.57;5.97;;;26.90;99.90;;;;;;5101417;28;20237;-70
2023/06/25 07:36:07;;;;;;;7.60;5.80;;;27.70;99.90;;;;;;5071291;28;20313;-70
2023/06/25 07:38:33;;;;;;;7.40;6.10;;;26.70;99.90;;;;;;5092830;28;20169;-69
2023/06/25 07:40:59;;;;;;;5.30;4.90;;;26.80;99.90;;;;;;5089496;28;20549;-70
2023/06/25 07:43:24;;;;;;;6.93;6.23;;;26.80;99.90;;;;;;5090545;28;20636;-70
2023/06/25 07:45:50;;;;;;;5.87;5.03;;;27.50;99.90;;;;;;5100147;28;20176;-70
2023/06/25 07:48:15;;;;;;;6.33;4.83;;;26.90;99.90;;;;;;5072404;28;20643;-69
2023/06/25 07:50:41;;;;;;;5.83;5.30;;;27.10;99.90;;;;;;5098365;28;20195;-69
2023/06/25 07:53:06;;;;;;;6.30;5.70;;;27.30;99.90;;;;;;5071265;28;20174;-70
2023/06/25 07:55:40;;;;;;;6.53;5.93;;;27.50;99.90;;;;;;5093780;28;20185;-70
2023/06/25 07:58:06;;;;;;;6.60;5.80;;;27.30;99.90;;;;;;5085924;28;20193;-71
2023/06/25 08:00:32;;;;;;;6.30;5.80;;;27.50;99.90;;;;;;5089598;28;20459;-70
2023/06/25 08:02:57;;;;;;;6.00;5.40;;;27.20;99.90;;;;;;5099756;28;20166;-69
2023/06/25 08:05:23;;;;;;;6.33;5.37;;;26.80;99.90;;;;;;5092576;28;20200;-69
2023/06/25 08:07:48;;;;;;;6.23;5.73;;;26.30;99.90;;;;;;5096524;28;20173;-70
2023/06/25 08:10:14;;;;;;;6.03;5.53;;;26.10;99.90;;;;;;5089444;28;20280;-70
2023/06/25 08:12:40;;;;;;;5.70;5.20;;;26.00;99.90;;;;;;5094227;28;20192;-70
2023/06/25 08:15:06;;;;;;;7.90;6.10;;;26.50;99.90;;;;;;5093392;28;20170;-71
2023/06/25 08:17:31;;;;;;;6.63;6.03;;;26.50;99.90;;;;;;5098223;28;20170;-70
2023/06/25 08:19:57;;;;;;;5.83;5.13;;;26.00;99.90;;;;;;5088042;28;20446;-71
2023/06/25 08:22:22;;;;;;;6.37;5.10;;;26.10;99.90;;;;;;5090491;28;20211;-71
2023/06/25 08:24:48;;;;;;;6.00;5.50;;;26.10;99.90;;;;;;5089261;28;20184;-71
2023/06/25 08:27:13;;;;;;;9.43;6.30;;;26.30;99.90;;;;;;5094945;28;20170;-70
2023/06/25 08:29:40;;;;;;;6.17;5.23;;;26.60;99.90;;;;;;5093494;28;20269;-71
2023/06/25 08:32:06;;;;;;;6.00;5.33;;;26.60;99.90;;;;;;5093535;28;20604;-69
2023/06/25 08:34:32;;;;;;;7.87;5.87;;;26.50;99.90;;;;;;5090530;28;20463;-71
2023/06/25 08:36:58;;;;;;;6.20;5.60;;;26.60;99.90;;;;;;5072276;28;20415;-70
2023/06/25 08:39:24;;;;;;;7.57;5.90;;;26.40;99.90;;;;;;5096371;28;20450;-72
2023/06/25 08:41:50;;;;;;;6.20;5.70;;;26.40;99.90;;;;;;5086633;28;20310;-70
2023/06/25 08:44:16;;;;;;;7.43;6.27;;;26.30;99.90;;;;;;5094254;28;20173;-70
2023/06/25 08:46:54;;;;;;;6.23;5.27;;;26.10;99.90;;;;;;5075915;28;20169;-71
2023/06/25 08:49:23;;;;;;;6.27;5.77;;;26.40;99.90;;;;;;5074805;28;20459;-70
2023/06/25 08:51:55;;;;;;;6.33;5.77;;;26.90;99.90;;;;;;5097285;28;20494;-69
2023/06/25 08:54:21;;;;;;;7.33;6.63;;;27.90;99.90;;;;;;5072575;28;20986;-70
2023/06/25 08:56:46;;;;;;;6.27;5.67;;;28.10;99.90;;;;;;5089844;28;20415;-70
2023/06/25 08:59:12;;;;;;;6.80;6.10;;;27.40;99.90;;;;;;5089949;28;20216;-71
2023/06/25 09:01:37;;;;;;;5.97;5.37;;;26.50;99.90;;;;;;5094924;28;20207;-71
2023/06/25 09:04:03;;;;;;;5.30;4.80;;;26.80;99.90;;;;;;5099671;28;20249;-70
2023/06/25 09:06:29;;;;;;;6.57;5.97;;;27.20;99.90;;;;;;5092299;28;20180;-70
2023/06/25 09:08:54;;;;;;;6.47;5.63;;;27.80;99.90;;;;;;5091289;28;20632;-70
2023/06/25 09:11:20;;;;;;;6.50;5.50;;;28.10;99.90;;;;;;5096059;28;20685;-70
2023/06/25 09:13:46;;;;;;;6.27;5.77;;;27.40;99.90;;;;;;5089762;28;20261;-69
2023/06/25 09:16:11;;;;;;;7.50;5.80;;;27.30;99.90;;;;;;5095296;28;20172;-70
2023/06/25 09:18:37;;;;;;;6.83;6.20;;;27.60;99.90;;;;;;5094908;28;20202;-70
2023/06/25 09:21:04;;;;;;;5.60;5.20;;;28.50;99.90;;;;;;5084488;28;20217;-71
2023/06/25 09:23:30;;;;;;;4.90;4.50;;;28.40;99.90;;;;;;5091303;28;20165;-71
2023/06/25 09:25:56;;;;;;;5.80;5.30;;;28.80;99.90;;;;;;5082351;28;20411;-71
2023/06/25 09:28:22;;;;;;;6.23;5.63;;;28.80;99.90;;;;;;5085519;28;20172;-72
2023/06/25 09:30:47;;;;;;;5.40;4.90;;;28.40;99.90;;;;;;5089077;28;20933;-71
2023/06/25 09:33:15;;;;;;;5.47;4.90;;;28.10;99.90;;;;;;5092282;28;20174;-71
2023/06/25 09:35:41;;;;;;;6.47;5.80;;;28.90;99.90;;;;;;5089688;28;20687;-70
2023/06/25 09:38:07;;;;;;;5.50;5.00;;;29.40;99.90;;;;;;5091118;28;20507;-71
2023/06/25 09:40:33;;;;;;;6.10;5.50;;;29.40;99.90;;;;;;5094738;28;20695;-71
2023/06/25 09:43:00;;;;;;;5.63;5.13;;;28.40;99.90;;;;;;5081896;28;20536;-71
2023/06/25 09:45:27;;;;;;;4.93;4.53;;;29.30;99.90;;;;;;5078319;28;20415;-70
2023/06/25 09:47:55;;;;;;;4.77;4.30;;;29.00;99.90;;;;;;5088863;28;20419;-71
2023/06/25 09:50:38;;;;;;;5.33;4.83;;;29.20;99.90;;;;;;5088174;28;20457;-71
2023/06/25 09:53:07;;;;;;;5.90;5.40;;;28.70;99.90;;;;;;5079941;28;20802;-70
2023/06/25 09:55:35;;;;;;;4.57;4.17;;;28.00;99.90;;;;;;5091712;28;20498;-70
2023/06/25 09:58:01;;;;;;;5.37;4.87;;;28.50;99.90;;;;;;5079257;28;20409;-70
2023/06/25 10:00:28;;;;;;;5.40;5.00;;;28.50;99.90;;;;;;5092482;28;20472;-71
2023/06/25 10:02:54;;;;;;;6.27;5.63;;;28.60;99.90;;;;;;5091070;28;20419;-71
2023/06/25 10:05:20;;;;;;;5.67;5.10;;;29.20;99.90;;;;;;5086526;28;20419;-70
2023/06/25 10:07:46;;;;;;;5.43;4.93;;;29.40;99.90;;;;;;5092675;28;20177;-70
2023/06/25 10:10:20;;;;;;;6.13;5.60;;;30.20;99.90;;;;;;5092921;28;20279;-70
2023/06/25 10:12:47;;;;;;;5.50;5.00;;;29.40;99.90;;;;;;5099721;28;20456;-69
2023/06/25 10:15:13;;;;;;;5.37;4.97;;;29.10;99.90;;;;;;5091117;28;20461;-71
2023/06/25 10:17:51;;;;;;;6.43;5.67;;;28.90;99.90;;;;;;5089000;28;20431;-70
2023/06/25 10:20:28;;;;;;;5.07;4.60;;;27.90;99.90;;;;;;5085826;28;20299;-70
2023/06/25 10:23:08;;;;;;;6.93;6.23;;;28.20;99.90;;;;;;5088514;28;20979;-70
2023/06/25 10:25:35;;;;;;;5.00;4.60;;;28.90;99.90;;;;;;5084723;28;20779;-70
2023/06/25 10:28:08;;;;;;;5.40;4.90;;;28.70;99.90;;;;;;5096896;28;20407;-70
2023/06/25 10:30:48;;;;;;;4.70;4.30;;;28.00;99.90;;;;;;5099996;28;20924;-71
2023/06/25 10:33:17;;;;;;;5.43;4.90;;;28.80;99.90;;;;;;5099958;28;20398;-69
2023/06/25 10:35:46;;;;;;;5.57;5.07;;;28.30;99.90;;;;;;5095217;28;20877;-70
2023/06/25 10:38:12;;;;;;;5.23;4.83;;;28.20;99.90;;;;;;5089178;28;20786;-69
2023/06/25 10:40:39;;;;;;;5.30;4.80;;;28.10;99.90;;;;;;5093544;28;20478;-71
2023/06/25 10:43:06;;;;;;;5.50;5.00;;;27.90;99.90;;;;;;5090549;28;20486;-70
2023/06/25 10:45:32;;;;;;;6.20;4.60;;;28.40;99.90;;;;;;5097252;28;20407;-69
2023/06/25 10:48:01;;;;;;;5.03;4.57;;;28.60;99.90;;;;;;5090926;28;20400;-70
2023/06/25 10:50:30;;;;;;;5.00;4.60;;;28.40;99.90;;;;;;5098505;28;20561;-70
2023/06/25 10:52:56;;;;;;;4.80;4.40;;;28.30;99.90;;;;;;5091666;28;20416;-70
2023/06/25 10:55:23;;;;;;;4.83;4.30;;;28.50;99.90;;;;;;5089953;28;20407;-69
2023/06/25 10:57:49;;;;;;;4.57;4.17;;;29.00;99.90;;;;;;5092381;28;20183;-70
2023/06/25 11:00:14;;;;;;;5.90;5.10;;;28.90;99.90;;;;;;5089795;28;20634;-71
2023/06/25 11:02:40;;;;;;;5.03;4.63;;;29.10;99.90;;;;;;5113714;28;20173;-70
2023/06/25 11:05:06;;;;;;;5.00;4.60;;;28.90;99.90;;;;;;5091731;28;20474;-70
2023/06/25 11:07:32;;;;;;;6.97;5.43;;;29.20;99.90;;;;;;5098633;28;20696;-70
2023/06/25 11:09:59;;;;;;;5.73;5.07;;;29.80;99.90;;;;;;5102593;28;20193;-69
2023/06/25 11:12:25;;;;;;;5.43;4.93;;;29.10;99.90;;;;;;5093103;28;20170;-70
2023/06/25 11:14:51;;;;;;;5.67;5.03;;;29.10;99.90;;;;;;5080049;28;20430;-70
2023/06/25 11:17:17;;;;;;;5.20;4.70;;;28.90;99.90;;;;;;5092280;28;20461;-70
2023/06/25 11:19:49;;;;;;;5.63;5.13;;;28.70;99.90;;;;;;5122323;22;20345;-72
2023/06/25 11:22:14;;;;;;;5.70;4.73;;;28.90;99.90;;;;;;5102045;28;20396;-72
2023/06/25 11:24:40;;;;;;;5.10;4.70;;;28.60;99.90;;;;;;5095501;28;20572;-70
2023/06/25 11:27:06;;;;;;;8.57;5.20;;;28.10;99.90;;;;;;5070596;28;20184;-71
2023/06/25 11:29:42;;;;;;;6.60;6.00;;;28.60;99.90;;;;;;5090220;28;20277;-71
2023/06/25 11:32:09;;;;;;;4.77;4.37;;;28.60;99.90;;;;;;5075954;28;20189;-70
2023/06/25 11:34:36;;;;;;;5.10;4.60;;;28.40;99.90;;;;;;5090551;28;20391;-74
2023/06/25 11:37:13;;;;;;;4.97;4.50;;;29.10;99.90;;;;;;5067827;28;20407;-72
2023/06/25 11:39:46;;;;;;;4.10;3.80;;;29.30;99.90;;;;;;5084914;28;20423;-72
2023/06/25 11:42:17;;;;;;;6.17;4.10;;;29.70;99.90;;;;;;5085971;28;20408;-71
2023/06/25 11:44:43;;;;;;;4.93;4.53;;;28.90;99.90;;;;;;5071204;28;20797;-72
2023/06/25 11:47:11;;;;;;;5.83;4.87;;;28.40;99.90;;;;;;5092927;28;20399;-71
2023/06/25 11:49:37;;;;;;;4.57;4.17;;;28.20;99.90;;;;;;5069869;28;20925;-71
2023/06/25 11:52:04;;;;;;;5.40;4.90;;;28.70;99.90;;;;;;5085964;28;20470;-71
2023/06/25 11:54:29;;;;;;;5.23;4.73;;;28.50;99.90;;;;;;5093645;28;20407;-70
2023/06/25 11:56:55;;;;;;;6.23;5.60;;;28.70;99.90;;;;;;5089045;28;20465;-70
2023/06/25 11:59:21;;;;;;;5.10;4.37;;;28.40;99.90;;;;;;5091954;28;20197;-71
2023/06/25 12:01:46;;;;;;;5.00;4.60;;;28.50;99.90;;;;;;5085030;28;20656;-70
2023/06/25 12:04:12;;;;;;;5.70;4.60;;;28.70;99.90;;;;;;5090675;28;20177;-71
2023/06/25 12:06:38;;;;;;;5.27;4.77;;;28.50;99.90;;;;;;5093120;28;20564;-71
2023/06/25 12:09:03;;;;;;;5.47;4.77;;;28.80;99.90;;;;;;5085169;28;20192;-71
2023/06/25 12:11:30;;;;;;;4.47;4.07;;;28.30;99.90;;;;;;5091500;28;20218;-72
2023/06/25 12:13:55;;;;;;;5.57;5.03;;;28.30;99.90;;;;;;5084212;28;20682;-70
2023/06/25 12:16:21;;;;;;;3.97;3.67;;;28.30;99.90;;;;;;5085163;28;20400;-70
2023/06/25 12:18:47;;;;;;;4.97;4.40;;;28.60;99.90;;;;;;5066271;28;20210;-70
2023/06/25 12:21:12;;;;;;;5.90;5.30;;;28.10;99.90;;;;;;5085003;28;20189;-70
2023/06/25 12:23:38;;;;;;;4.70;4.30;;;27.60;99.90;;;;;;5082502;28;20169;-70
2023/06/25 12:26:04;;;;;;;4.70;4.00;;;27.90;99.90;;;;;;5084598;28;20193;-72
2023/06/25 12:28:29;;;;;;;4.77;4.37;;;28.00;99.90;;;;;;5090584;28;20192;-71
2023/06/25 12:30:55;;;;;;;4.20;3.90;;;27.80;99.90;;;;;;5093206;28;20731;-71
2023/06/25 12:33:21;;;;;;;5.00;4.60;;;27.50;99.90;;;;;;5090051;28;20168;-71
2023/06/25 12:35:47;;;;;;;7.63;5.07;;;27.40;99.90;;;;;;5090438;28;20189;-69
2023/06/25 12:38:12;;;;;;;7.57;4.43;;;27.40;99.90;;;;;;5088924;28;20412;-70
2023/06/25 12:40:38;;;;;;;5.27;4.83;;;27.20;99.90;;;;;;5091417;28;21020;-70
2023/06/25 12:43:04;;;;;;;5.40;5.00;;;27.30;99.90;;;;;;5087986;28;20165;-72